sensor_id;sensor_type;location;lat;lon;timestamp;P1;durP1;ratioP1;P2;durP2;ratioP2
12631;SDS011;6381;45.748;12.106;2024-01-11T00:01:36;28.77;;;25.37;;
12631;SDS011;6381;45.748;12.106;2024-01-11T00:04:05;26.30;;;23.53;;
12631;SDS011;6381;45.748;12.106;2024-01-11T00:06:39;25.73;;;22.80;;
12631;SDS011;6381;45.748;12.106;2024-01-11T00:09:11;27.27;;;23.13;;
12631;SDS011;6381;45.748;12.106;2024-01-11T00:11:40;26.30;;;23.50;;
12631;SDS011;6381;45.748;12.106;2024-01-11T00:14:09;25.67;;;22.80;;
12631;SDS011;6381;45.748;12.106;2024-01-11T00:16:38;25.70;;;22.97;;
12631;SDS011;6381;45.748;12.106;2024-01-11T00:19:06;26.07;;;23.27;;
12631;SDS011;6381;45.748;12.106;2024-01-11T00:21:36;25.53;;;22.83;;
12631;SDS011;6381;45.748;12.106;2024-01-11T00:24:07;25.47;;;22.87;;
12631;SDS011;6381;45.748;12.106;2024-01-11T00:26:37;25.77;;;22.97;;
12631;SDS011;6381;45.748;12.106;2024-01-11T00:29:08;26.03;;;23.30;;
12631;SDS011;6381;45.748;12.106;2024-01-11T00:31:37;25.77;;;23.07;;
12631;SDS011;6381;45.748;12.106;2024-01-11T00:34:06;25.13;;;22.43;;
12631;SDS011;6381;45.748;12.106;2024-01-11T00:36:35;24.93;;;22.33;;
12631;SDS011;6381;45.748;12.106;2024-01-11T00:39:04;24.67;;;22.07;;
12631;SDS011;6381;45.748;12.106;2024-01-11T00:41:33;25.93;;;23.23;;
12631;SDS011;6381;45.748;12.106;2024-01-11T00:44:03;25.03;;;22.40;;
12631;SDS011;6381;45.748;12.106;2024-01-11T00:46:34;26.37;;;23.53;;
12631;SDS011;6381;45.748;12.106;2024-01-11T00:49:05;25.60;;;23.00;;
12631;SDS011;6381;45.748;12.106;2024-01-11T00:51:34;26.33;;;23.53;;
12631;SDS011;6381;45.748;12.106;2024-01-11T00:54:02;25.97;;;23.17;;
12631;SDS011;6381;45.748;12.106;2024-01-11T00:56:31;25.90;;;23.10;;
12631;SDS011;6381;45.748;12.106;2024-01-11T00:59:00;25.13;;;22.43;;
12631;SDS011;6381;45.748;12.106;2024-01-11T01:01:30;25.93;;;23.03;;
12631;SDS011;6381;45.748;12.106;2024-01-11T01:03:59;27.73;;;23.50;;
12631;SDS011;6381;45.748;12.106;2024-01-11T01:06:28;25.30;;;22.60;;
12631;SDS011;6381;45.748;12.106;2024-01-11T01:08:57;34.50;;;27.30;;
12631;SDS011;6381;45.748;12.106;2024-01-11T01:11:26;36.60;;;26.13;;
12631;SDS011;6381;45.748;12.106;2024-01-11T01:13:54;28.83;;;23.37;;
12631;SDS011;6381;45.748;12.106;2024-01-11T01:16:23;23.10;;;20.80;;
12631;SDS011;6381;45.748;12.106;2024-01-11T01:18:53;24.57;;;21.87;;
12631;SDS011;6381;45.748;12.106;2024-01-11T01:21:22;22.73;;;20.43;;
12631;SDS011;6381;45.748;12.106;2024-01-11T01:23:51;25.07;;;21.50;;
12631;SDS011;6381;45.748;12.106;2024-01-11T01:26:20;22.37;;;20.07;;
12631;SDS011;6381;45.748;12.106;2024-01-11T01:28:49;22.43;;;19.80;;
12631;SDS011;6381;45.748;12.106;2024-01-11T01:31:18;24.00;;;21.20;;
12631;SDS011;6381;45.748;12.106;2024-01-11T01:33:47;22.77;;;20.40;;
12631;SDS011;6381;45.748;12.106;2024-01-11T01:36:17;22.83;;;20.23;;
12631;SDS011;6381;45.748;12.106;2024-01-11T01:38:46;22.23;;;19.90;;
12631;SDS011;6381;45.748;12.106;2024-01-11T01:41:14;22.17;;;19.30;;
12631;SDS011;6381;45.748;12.106;2024-01-11T01:43:43;21.77;;;19.47;;
12631;SDS011;6381;45.748;12.106;2024-01-11T01:46:12;22.13;;;19.83;;
12631;SDS011;6381;45.748;12.106;2024-01-11T01:48:43;22.90;;;20.50;;
12631;SDS011;6381;45.748;12.106;2024-01-11T01:51:12;21.83;;;19.27;;
12631;SDS011;6381;45.748;12.106;2024-01-11T01:53:43;20.40;;;18.33;;
12631;SDS011;6381;45.748;12.106;2024-01-11T01:56:12;21.37;;;19.20;;
12631;SDS011;6381;45.748;12.106;2024-01-11T01:58:41;20.50;;;18.33;;
12631;SDS011;6381;45.748;12.106;2024-01-11T02:01:11;20.37;;;17.73;;
12631;SDS011;6381;45.748;12.106;2024-01-11T02:03:40;20.73;;;18.10;;
12631;SDS011;6381;45.748;12.106;2024-01-11T02:06:09;18.57;;;16.73;;
12631;SDS011;6381;45.748;12.106;2024-01-11T02:08:39;17.97;;;16.17;;
12631;SDS011;6381;45.748;12.106;2024-01-11T02:11:10;18.50;;;16.53;;
12631;SDS011;6381;45.748;12.106;2024-01-11T02:13:39;18.73;;;16.73;;
12631;SDS011;6381;45.748;12.106;2024-01-11T02:16:08;17.70;;;15.87;;
12631;SDS011;6381;45.748;12.106;2024-01-11T02:18:36;18.53;;;16.53;;
12631;SDS011;6381;45.748;12.106;2024-01-11T02:21:06;18.37;;;16.47;;
12631;SDS011;6381;45.748;12.106;2024-01-11T02:23:36;18.73;;;15.93;;
12631;SDS011;6381;45.748;12.106;2024-01-11T02:26:14;16.63;;;14.90;;
12631;SDS011;6381;45.748;12.106;2024-01-11T02:28:43;17.37;;;15.50;;
12631;SDS011;6381;45.748;12.106;2024-01-11T02:31:12;18.03;;;15.43;;
12631;SDS011;6381;45.748;12.106;2024-01-11T02:33:42;16.57;;;14.87;;
12631;SDS011;6381;45.748;12.106;2024-01-11T02:36:12;16.80;;;15.10;;
12631;SDS011;6381;45.748;12.106;2024-01-11T02:38:41;17.47;;;15.77;;
12631;SDS011;6381;45.748;12.106;2024-01-11T02:41:11;17.20;;;15.50;;
12631;SDS011;6381;45.748;12.106;2024-01-11T02:43:41;17.70;;;15.93;;
12631;SDS011;6381;45.748;12.106;2024-01-11T02:46:14;18.87;;;15.60;;
12631;SDS011;6381;45.748;12.106;2024-01-11T02:48:43;16.77;;;14.97;;
12631;SDS011;6381;45.748;12.106;2024-01-11T02:51:12;17.83;;;15.93;;
12631;SDS011;6381;45.748;12.106;2024-01-11T02:53:41;17.17;;;15.40;;
12631;SDS011;6381;45.748;12.106;2024-01-11T02:56:10;17.50;;;15.07;;
12631;SDS011;6381;45.748;12.106;2024-01-11T02:58:39;17.67;;;14.90;;
12631;SDS011;6381;45.748;12.106;2024-01-11T03:01:09;17.07;;;14.90;;
12631;SDS011;6381;45.748;12.106;2024-01-11T03:03:38;16.67;;;14.87;;
12631;SDS011;6381;45.748;12.106;2024-01-11T03:06:06;16.47;;;14.77;;
12631;SDS011;6381;45.748;12.106;2024-01-11T03:08:35;16.77;;;14.57;;
12631;SDS011;6381;45.748;12.106;2024-01-11T03:11:04;17.40;;;15.23;;
12631;SDS011;6381;45.748;12.106;2024-01-11T03:13:33;15.77;;;14.07;;
12631;SDS011;6381;45.748;12.106;2024-01-11T03:16:02;15.70;;;14.00;;
12631;SDS011;6381;45.748;12.106;2024-01-11T03:18:32;15.77;;;14.20;;
12631;SDS011;6381;45.748;12.106;2024-01-11T03:21:01;16.57;;;14.97;;
12631;SDS011;6381;45.748;12.106;2024-01-11T03:23:30;15.90;;;14.30;;
12631;SDS011;6381;45.748;12.106;2024-01-11T03:25:59;15.93;;;14.07;;
12631;SDS011;6381;45.748;12.106;2024-01-11T03:28:28;15.73;;;13.60;;
12631;SDS011;6381;45.748;12.106;2024-01-11T03:30:58;17.50;;;14.50;;
12631;SDS011;6381;45.748;12.106;2024-01-11T03:33:27;15.93;;;14.20;;
12631;SDS011;6381;45.748;12.106;2024-01-11T03:35:57;15.73;;;14.13;;
12631;SDS011;6381;45.748;12.106;2024-01-11T03:38:25;15.47;;;13.87;;
12631;SDS011;6381;45.748;12.106;2024-01-11T03:40:54;17.17;;;14.40;;
12631;SDS011;6381;45.748;12.106;2024-01-11T03:43:23;16.27;;;14.57;;
12631;SDS011;6381;45.748;12.106;2024-01-11T03:45:52;15.47;;;13.63;;
12631;SDS011;6381;45.748;12.106;2024-01-11T03:48:21;16.37;;;14.63;;
12631;SDS011;6381;45.748;12.106;2024-01-11T03:50:50;16.40;;;14.63;;
12631;SDS011;6381;45.748;12.106;2024-01-11T03:53:20;16.00;;;13.93;;
12631;SDS011;6381;45.748;12.106;2024-01-11T03:55:50;16.63;;;14.30;;
12631;SDS011;6381;45.748;12.106;2024-01-11T03:58:18;15.53;;;13.70;;
12631;SDS011;6381;45.748;12.106;2024-01-11T04:00:47;16.30;;;14.20;;
12631;SDS011;6381;45.748;12.106;2024-01-11T04:03:16;14.60;;;13.07;;
12631;SDS011;6381;45.748;12.106;2024-01-11T04:05:45;14.77;;;13.17;;
12631;SDS011;6381;45.748;12.106;2024-01-11T04:08:18;17.83;;;13.33;;
12631;SDS011;6381;45.748;12.106;2024-01-11T04:10:48;14.77;;;13.17;;
12631;SDS011;6381;45.748;12.106;2024-01-11T04:13:17;15.03;;;13.43;;
12631;SDS011;6381;45.748;12.106;2024-01-11T04:15:48;14.97;;;13.40;;
12631;SDS011;6381;45.748;12.106;2024-01-11T04:18:17;14.13;;;12.73;;
12631;SDS011;6381;45.748;12.106;2024-01-11T04:20:47;13.60;;;12.23;;
12631;SDS011;6381;45.748;12.106;2024-01-11T04:23:15;13.80;;;12.47;;
12631;SDS011;6381;45.748;12.106;2024-01-11T04:25:44;14.90;;;13.30;;
12631;SDS011;6381;45.748;12.106;2024-01-11T04:28:14;13.17;;;11.87;;
12631;SDS011;6381;45.748;12.106;2024-01-11T04:30:43;12.70;;;11.40;;
12631;SDS011;6381;45.748;12.106;2024-01-11T04:33:12;13.90;;;12.40;;
12631;SDS011;6381;45.748;12.106;2024-01-11T04:35:41;13.50;;;12.10;;
12631;SDS011;6381;45.748;12.106;2024-01-11T04:38:10;13.73;;;12.33;;
12631;SDS011;6381;45.748;12.106;2024-01-11T04:40:39;14.27;;;12.00;;
12631;SDS011;6381;45.748;12.106;2024-01-11T04:43:07;14.00;;;12.07;;
12631;SDS011;6381;45.748;12.106;2024-01-11T04:45:38;14.50;;;12.57;;
12631;SDS011;6381;45.748;12.106;2024-01-11T04:48:07;13.27;;;11.97;;
12631;SDS011;6381;45.748;12.106;2024-01-11T04:50:36;13.67;;;12.30;;
12631;SDS011;6381;45.748;12.106;2024-01-11T04:53:05;14.03;;;12.53;;
12631;SDS011;6381;45.748;12.106;2024-01-11T04:55:34;15.03;;;12.87;;
12631;SDS011;6381;45.748;12.106;2024-01-11T04:58:02;14.50;;;13.00;;
12631;SDS011;6381;45.748;12.106;2024-01-11T05:00:31;16.10;;;14.40;;
12631;SDS011;6381;45.748;12.106;2024-01-11T05:03:04;15.83;;;13.83;;
12631;SDS011;6381;45.748;12.106;2024-01-11T05:05:34;16.10;;;14.13;;
12631;SDS011;6381;45.748;12.106;2024-01-11T05:08:03;17.53;;;15.27;;
12631;SDS011;6381;45.748;12.106;2024-01-11T05:10:32;16.67;;;14.87;;
12631;SDS011;6381;45.748;12.106;2024-01-11T05:13:01;16.60;;;14.80;;
12631;SDS011;6381;45.748;12.106;2024-01-11T05:15:30;16.83;;;15.07;;
12631;SDS011;6381;45.748;12.106;2024-01-11T05:17:59;15.90;;;14.20;;
12631;SDS011;6381;45.748;12.106;2024-01-11T05:20:30;15.93;;;14.17;;
12631;SDS011;6381;45.748;12.106;2024-01-11T05:22:58;16.40;;;14.70;;
12631;SDS011;6381;45.748;12.106;2024-01-11T05:25:28;16.87;;;14.87;;
12631;SDS011;6381;45.748;12.106;2024-01-11T05:27:59;17.17;;;15.27;;
12631;SDS011;6381;45.748;12.106;2024-01-11T05:30:28;18.60;;;15.70;;
12631;SDS011;6381;45.748;12.106;2024-01-11T05:32:57;17.20;;;15.43;;
12631;SDS011;6381;45.748;12.106;2024-01-11T05:35:26;17.63;;;15.83;;
12631;SDS011;6381;45.748;12.106;2024-01-11T05:37:56;18.33;;;16.33;;
12631;SDS011;6381;45.748;12.106;2024-01-11T05:40:25;18.97;;;16.90;;
12631;SDS011;6381;45.748;12.106;2024-01-11T05:42:54;21.50;;;17.37;;
12631;SDS011;6381;45.748;12.106;2024-01-11T05:45:22;21.57;;;17.87;;
12631;SDS011;6381;45.748;12.106;2024-01-11T05:48:06;21.27;;;18.97;;
12631;SDS011;6381;45.748;12.106;2024-01-11T05:50:35;19.53;;;17.53;;
12631;SDS011;6381;45.748;12.106;2024-01-11T05:53:05;21.67;;;19.40;;
12631;SDS011;6381;45.748;12.106;2024-01-11T05:55:34;20.20;;;18.20;;
12631;SDS011;6381;45.748;12.106;2024-01-11T05:58:03;21.43;;;19.13;;
12631;SDS011;6381;45.748;12.106;2024-01-11T06:00:32;19.23;;;17.13;;
12631;SDS011;6381;45.748;12.106;2024-01-11T06:03:01;21.30;;;19.03;;
12631;SDS011;6381;45.748;12.106;2024-01-11T06:05:30;27.10;;;24.30;;
12631;SDS011;6381;45.748;12.106;2024-01-11T06:07:59;25.27;;;22.73;;
12631;SDS011;6381;45.748;12.106;2024-01-11T06:10:29;23.50;;;21.10;;
12631;SDS011;6381;45.748;12.106;2024-01-11T06:12:58;24.00;;;21.60;;
12631;SDS011;6381;45.748;12.106;2024-01-11T06:15:26;25.73;;;23.13;;
12631;SDS011;6381;45.748;12.106;2024-01-11T06:17:55;26.60;;;22.33;;
12631;SDS011;6381;45.748;12.106;2024-01-11T06:20:24;25.80;;;23.00;;
12631;SDS011;6381;45.748;12.106;2024-01-11T06:22:56;26.33;;;23.60;;
12631;SDS011;6381;45.748;12.106;2024-01-11T06:25:25;27.27;;;24.50;;
12631;SDS011;6381;45.748;12.106;2024-01-11T06:27:55;24.27;;;20.77;;
12631;SDS011;6381;45.748;12.106;2024-01-11T06:30:26;23.13;;;20.83;;
12631;SDS011;6381;45.748;12.106;2024-01-11T06:32:55;24.03;;;21.43;;
12631;SDS011;6381;45.748;12.106;2024-01-11T06:35:24;24.80;;;22.10;;
12631;SDS011;6381;45.748;12.106;2024-01-11T06:37:53;23.47;;;20.97;;
12631;SDS011;6381;45.748;12.106;2024-01-11T06:40:22;22.50;;;19.83;;
12631;SDS011;6381;45.748;12.106;2024-01-11T06:42:51;23.13;;;20.63;;
12631;SDS011;6381;45.748;12.106;2024-01-11T06:45:21;20.83;;;18.60;;
12631;SDS011;6381;45.748;12.106;2024-01-11T06:47:50;21.67;;;19.40;;
12631;SDS011;6381;45.748;12.106;2024-01-11T06:50:19;23.00;;;20.60;;
12631;SDS011;6381;45.748;12.106;2024-01-11T06:52:48;34.30;;;24.53;;
12631;SDS011;6381;45.748;12.106;2024-01-11T06:55:17;43.33;;;28.93;;
12631;SDS011;6381;45.748;12.106;2024-01-11T06:57:46;32.67;;;24.73;;
12631;SDS011;6381;45.748;12.106;2024-01-11T07:00:15;29.27;;;21.93;;
12631;SDS011;6381;45.748;12.106;2024-01-11T07:02:46;32.70;;;25.10;;
12631;SDS011;6381;45.748;12.106;2024-01-11T07:05:14;36.80;;;27.50;;
12631;SDS011;6381;45.748;12.106;2024-01-11T07:07:43;45.33;;;31.40;;
12631;SDS011;6381;45.748;12.106;2024-01-11T07:10:12;38.63;;;29.00;;
12631;SDS011;6381;45.748;12.106;2024-01-11T07:12:42;41.07;;;30.33;;
12631;SDS011;6381;45.748;12.106;2024-01-11T07:15:12;55.80;;;34.60;;
12631;SDS011;6381;45.748;12.106;2024-01-11T07:17:41;33.53;;;27.03;;
12631;SDS011;6381;45.748;12.106;2024-01-11T07:20:12;25.57;;;20.93;;
12631;SDS011;6381;45.748;12.106;2024-01-11T07:22:43;27.40;;;22.83;;
12631;SDS011;6381;45.748;12.106;2024-01-11T07:25:12;35.53;;;27.17;;
12631;SDS011;6381;45.748;12.106;2024-01-11T07:27:41;43.20;;;30.70;;
12631;SDS011;6381;45.748;12.106;2024-01-11T07:30:10;61.53;;;40.03;;
12631;SDS011;6381;45.748;12.106;2024-01-11T07:32:39;64.20;;;47.40;;
12631;SDS011;6381;45.748;12.106;2024-01-11T07:35:09;54.13;;;39.03;;
12631;SDS011;6381;45.748;12.106;2024-01-11T07:37:45;29.20;;;25.37;;
12631;SDS011;6381;45.748;12.106;2024-01-11T07:40:15;37.80;;;33.53;;
12631;SDS011;6381;45.748;12.106;2024-01-11T07:42:44;24.87;;;22.17;;
12631;SDS011;6381;45.748;12.106;2024-01-11T07:45:13;28.07;;;21.47;;
12631;SDS011;6381;45.748;12.106;2024-01-11T07:47:44;27.17;;;23.47;;
12631;SDS011;6381;45.748;12.106;2024-01-11T07:50:13;41.63;;;27.87;;
12631;SDS011;6381;45.748;12.106;2024-01-11T07:52:41;49.70;;;28.90;;
12631;SDS011;6381;45.748;12.106;2024-01-11T07:55:11;62.50;;;33.40;;
12631;SDS011;6381;45.748;12.106;2024-01-11T07:57:43;53.83;;;31.60;;
12631;SDS011;6381;45.748;12.106;2024-01-11T08:00:12;56.50;;;31.40;;
12631;SDS011;6381;45.748;12.106;2024-01-11T08:02:40;48.60;;;29.73;;
12631;SDS011;6381;45.748;12.106;2024-01-11T08:05:09;53.50;;;31.33;;
12631;SDS011;6381;45.748;12.106;2024-01-11T08:07:38;39.77;;;27.43;;
12631;SDS011;6381;45.748;12.106;2024-01-11T08:10:08;33.03;;;25.87;;
12631;SDS011;6381;45.748;12.106;2024-01-11T08:12:38;29.43;;;24.80;;
12631;SDS011;6381;45.748;12.106;2024-01-11T08:15:07;27.17;;;23.60;;
12631;SDS011;6381;45.748;12.106;2024-01-11T08:17:43;27.03;;;23.43;;
12631;SDS011;6381;45.748;12.106;2024-01-11T08:20:14;27.37;;;23.67;;
12631;SDS011;6381;45.748;12.106;2024-01-11T08:22:43;30.70;;;25.57;;
12631;SDS011;6381;45.748;12.106;2024-01-11T08:25:13;32.17;;;26.10;;
12631;SDS011;6381;45.748;12.106;2024-01-11T08:27:44;30.60;;;25.20;;
12631;SDS011;6381;45.748;12.106;2024-01-11T08:30:12;28.80;;;24.67;;
12631;SDS011;6381;45.748;12.106;2024-01-11T08:32:42;30.77;;;23.50;;
12631;SDS011;6381;45.748;12.106;2024-01-11T08:35:11;30.90;;;22.87;;
12631;SDS011;6381;45.748;12.106;2024-01-11T08:37:40;24.97;;;20.87;;
12631;SDS011;6381;45.748;12.106;2024-01-11T08:40:09;24.00;;;20.93;;
12631;SDS011;6381;45.748;12.106;2024-01-11T08:42:38;21.77;;;19.57;;
12631;SDS011;6381;45.748;12.106;2024-01-11T08:45:09;21.47;;;19.23;;
12631;SDS011;6381;45.748;12.106;2024-01-11T08:47:44;24.30;;;21.40;;
12631;SDS011;6381;45.748;12.106;2024-01-11T08:50:13;22.80;;;20.57;;
12631;SDS011;6381;45.748;12.106;2024-01-11T08:52:46;24.63;;;21.87;;
12631;SDS011;6381;45.748;12.106;2024-01-11T08:55:15;26.77;;;23.70;;
12631;SDS011;6381;45.748;12.106;2024-01-11T08:57:44;28.93;;;25.37;;
12631;SDS011;6381;45.748;12.106;2024-01-11T09:00:14;28.67;;;24.63;;
12631;SDS011;6381;45.748;12.106;2024-01-11T09:02:45;29.67;;;24.40;;
12631;SDS011;6381;45.748;12.106;2024-01-11T09:05:15;27.23;;;23.30;;
12631;SDS011;6381;45.748;12.106;2024-01-11T09:07:44;25.50;;;22.20;;
12631;SDS011;6381;45.748;12.106;2024-01-11T09:10:13;27.40;;;23.77;;
12631;SDS011;6381;45.748;12.106;2024-01-11T09:12:41;25.13;;;22.43;;
12631;SDS011;6381;45.748;12.106;2024-01-11T09:15:10;27.30;;;22.80;;
12631;SDS011;6381;45.748;12.106;2024-01-11T09:17:41;26.53;;;21.70;;
12631;SDS011;6381;45.748;12.106;2024-01-11T09:20:10;25.63;;;21.27;;
12631;SDS011;6381;45.748;12.106;2024-01-11T09:22:41;26.87;;;22.30;;
12631;SDS011;6381;45.748;12.106;2024-01-11T09:25:10;28.50;;;22.00;;
12631;SDS011;6381;45.748;12.106;2024-01-11T09:27:38;23.97;;;21.27;;
12631;SDS011;6381;45.748;12.106;2024-01-11T09:30:07;24.63;;;20.70;;
12631;SDS011;6381;45.748;12.106;2024-01-11T09:32:36;23.40;;;20.57;;
12631;SDS011;6381;45.748;12.106;2024-01-11T09:35:07;24.17;;;20.30;;
12631;SDS011;6381;45.748;12.106;2024-01-11T09:37:39;23.80;;;20.10;;
12631;SDS011;6381;45.748;12.106;2024-01-11T09:40:09;24.57;;;19.67;;
12631;SDS011;6381;45.748;12.106;2024-01-11T09:42:39;25.67;;;19.37;;
12631;SDS011;6381;45.748;12.106;2024-01-11T09:45:09;24.43;;;20.07;;
12631;SDS011;6381;45.748;12.106;2024-01-11T09:47:39;27.07;;;20.90;;
12631;SDS011;6381;45.748;12.106;2024-01-11T09:50:09;26.10;;;19.57;;
12631;SDS011;6381;45.748;12.106;2024-01-11T09:52:43;23.37;;;19.37;;
12631;SDS011;6381;45.748;12.106;2024-01-11T09:55:14;25.70;;;18.80;;
12631;SDS011;6381;45.748;12.106;2024-01-11T09:57:44;24.73;;;18.60;;
12631;SDS011;6381;45.748;12.106;2024-01-11T10:00:13;22.70;;;17.97;;
12631;SDS011;6381;45.748;12.106;2024-01-11T10:02:45;28.80;;;18.90;;
12631;SDS011;6381;45.748;12.106;2024-01-11T10:05:16;25.50;;;18.30;;
12631;SDS011;6381;45.748;12.106;2024-01-11T10:07:46;23.50;;;18.17;;
12631;SDS011;6381;45.748;12.106;2024-01-11T10:10:15;21.10;;;17.63;;
12631;SDS011;6381;45.748;12.106;2024-01-11T10:12:44;24.63;;;17.20;;
12631;SDS011;6381;45.748;12.106;2024-01-11T10:15:12;23.93;;;17.70;;
12631;SDS011;6381;45.748;12.106;2024-01-11T10:17:42;20.17;;;14.20;;
12631;SDS011;6381;45.748;12.106;2024-01-11T10:20:12;22.37;;;15.53;;
12631;SDS011;6381;45.748;12.106;2024-01-11T10:22:43;26.40;;;17.87;;
12631;SDS011;6381;45.748;12.106;2024-01-11T10:25:14;28.60;;;17.77;;
12631;SDS011;6381;45.748;12.106;2024-01-11T10:27:44;25.07;;;15.90;;
12631;SDS011;6381;45.748;12.106;2024-01-11T10:30:14;24.40;;;15.97;;
12631;SDS011;6381;45.748;12.106;2024-01-11T10:32:44;27.23;;;16.27;;
12631;SDS011;6381;45.748;12.106;2024-01-11T10:35:13;28.57;;;15.70;;
12631;SDS011;6381;45.748;12.106;2024-01-11T10:37:45;20.27;;;15.40;;
12631;SDS011;6381;45.748;12.106;2024-01-11T10:40:17;28.23;;;16.93;;
12631;SDS011;6381;45.748;12.106;2024-01-11T10:42:51;20.40;;;15.00;;
12631;SDS011;6381;45.748;12.106;2024-01-11T10:45:20;27.03;;;15.60;;
12631;SDS011;6381;45.748;12.106;2024-01-11T10:47:51;28.37;;;17.27;;
12631;SDS011;6381;45.748;12.106;2024-01-11T10:50:23;21.47;;;15.67;;
12631;SDS011;6381;45.748;12.106;2024-01-11T10:52:56;24.43;;;15.67;;
12631;SDS011;6381;45.748;12.106;2024-01-11T10:55:32;23.50;;;15.67;;
12631;SDS011;6381;45.748;12.106;2024-01-11T10:58:02;19.53;;;15.83;;
12631;SDS011;6381;45.748;12.106;2024-01-11T11:00:30;18.60;;;11.90;;
12631;SDS011;6381;45.748;12.106;2024-01-11T11:03:00;15.77;;;11.77;;
12631;SDS011;6381;45.748;12.106;2024-01-11T11:05:31;16.90;;;12.47;;
12631;SDS011;6381;45.748;12.106;2024-01-11T11:08:03;16.67;;;11.23;;
12631;SDS011;6381;45.748;12.106;2024-01-11T11:10:33;14.33;;;10.93;;
12631;SDS011;6381;45.748;12.106;2024-01-11T11:13:02;13.23;;;10.63;;
12631;SDS011;6381;45.748;12.106;2024-01-11T11:15:33;13.33;;;10.23;;
12631;SDS011;6381;45.748;12.106;2024-01-11T11:18:04;14.67;;;11.40;;
12631;SDS011;6381;45.748;12.106;2024-01-11T11:20:34;14.03;;;11.87;;
12631;SDS011;6381;45.748;12.106;2024-01-11T11:23:04;16.93;;;12.43;;
12631;SDS011;6381;45.748;12.106;2024-01-11T11:25:34;14.50;;;11.90;;
12631;SDS011;6381;45.748;12.106;2024-01-11T11:28:03;21.67;;;13.27;;
12631;SDS011;6381;45.748;12.106;2024-01-11T11:30:32;16.60;;;12.90;;
12631;SDS011;6381;45.748;12.106;2024-01-11T11:33:07;15.73;;;12.80;;
12631;SDS011;6381;45.748;12.106;2024-01-11T11:35:37;18.13;;;13.03;;
12631;SDS011;6381;45.748;12.106;2024-01-11T11:38:07;18.53;;;12.60;;
12631;SDS011;6381;45.748;12.106;2024-01-11T11:40:36;14.73;;;12.77;;
12631;SDS011;6381;45.748;12.106;2024-01-11T11:43:07;16.87;;;12.70;;
12631;SDS011;6381;45.748;12.106;2024-01-11T11:45:35;16.30;;;11.43;;
12631;SDS011;6381;45.748;12.106;2024-01-11T11:51:00;16.27;;;12.67;;
12631;SDS011;6381;45.748;12.106;2024-01-11T11:53:31;14.27;;;11.63;;
12631;SDS011;6381;45.748;12.106;2024-01-11T11:56:02;15.73;;;12.20;;
12631;SDS011;6381;45.748;12.106;2024-01-11T11:58:31;14.50;;;11.93;;
12631;SDS011;6381;45.748;12.106;2024-01-11T12:01:01;13.10;;;11.20;;
12631;SDS011;6381;45.748;12.106;2024-01-11T12:03:30;13.20;;;11.10;;
12631;SDS011;6381;45.748;12.106;2024-01-11T12:05:59;15.60;;;11.17;;
12631;SDS011;6381;45.748;12.106;2024-01-11T12:08:28;13.90;;;11.83;;
12631;SDS011;6381;45.748;12.106;2024-01-11T12:10:59;14.53;;;11.33;;
12631;SDS011;6381;45.748;12.106;2024-01-11T12:13:28;15.57;;;11.53;;
12631;SDS011;6381;45.748;12.106;2024-01-11T12:15:57;16.13;;;11.73;;
12631;SDS011;6381;45.748;12.106;2024-01-11T12:18:26;16.17;;;11.53;;
12631;SDS011;6381;45.748;12.106;2024-01-11T12:34:59;16.67;;;11.80;;
12631;SDS011;6381;45.748;12.106;2024-01-11T12:37:29;14.43;;;11.10;;
12631;SDS011;6381;45.748;12.106;2024-01-11T12:39:58;17.57;;;10.33;;
12631;SDS011;6381;45.748;12.106;2024-01-11T12:42:27;13.40;;;10.90;;
12631;SDS011;6381;45.748;12.106;2024-01-11T12:44:56;13.67;;;10.50;;
12631;SDS011;6381;45.748;12.106;2024-01-11T12:47:25;13.50;;;10.50;;
12631;SDS011;6381;45.748;12.106;2024-01-11T12:49:54;12.93;;;10.43;;
12631;SDS011;6381;45.748;12.106;2024-01-11T12:52:24;13.73;;;11.53;;
12631;SDS011;6381;45.748;12.106;2024-01-11T12:54:55;12.10;;;10.73;;
12631;SDS011;6381;45.748;12.106;2024-01-11T12:57:24;12.90;;;11.00;;
12631;SDS011;6381;45.748;12.106;2024-01-11T12:59:53;14.67;;;10.80;;
12631;SDS011;6381;45.748;12.106;2024-01-11T13:02:22;11.90;;;10.57;;
12631;SDS011;6381;45.748;12.106;2024-01-11T13:04:51;13.83;;;10.90;;
12631;SDS011;6381;45.748;12.106;2024-01-11T13:07:19;17.63;;;12.20;;
12631;SDS011;6381;45.748;12.106;2024-01-11T13:09:51;12.93;;;11.57;;
12631;SDS011;6381;45.748;12.106;2024-01-11T13:12:19;12.83;;;10.90;;
12631;SDS011;6381;45.748;12.106;2024-01-11T13:14:48;15.70;;;11.63;;
12631;SDS011;6381;45.748;12.106;2024-01-11T13:17:19;13.67;;;11.40;;
12631;SDS011;6381;45.748;12.106;2024-01-11T13:19:48;14.53;;;10.77;;
12631;SDS011;6381;45.748;12.106;2024-01-11T13:22:17;13.97;;;11.57;;
12631;SDS011;6381;45.748;12.106;2024-01-11T13:24:46;15.07;;;10.70;;
12631;SDS011;6381;45.748;12.106;2024-01-11T13:27:17;14.03;;;10.27;;
12631;SDS011;6381;45.748;12.106;2024-01-11T13:29:45;13.03;;;9.77;;
12631;SDS011;6381;45.748;12.106;2024-01-11T13:32:14;11.87;;;9.40;;
12631;SDS011;6381;45.748;12.106;2024-01-11T13:34:43;9.60;;;8.53;;
12631;SDS011;6381;45.748;12.106;2024-01-11T13:37:12;12.50;;;9.10;;
12631;SDS011;6381;45.748;12.106;2024-01-11T13:39:42;10.33;;;9.23;;
12631;SDS011;6381;45.748;12.106;2024-01-11T13:42:10;12.77;;;10.77;;
12631;SDS011;6381;45.748;12.106;2024-01-11T13:44:41;12.87;;;11.40;;
12631;SDS011;6381;45.748;12.106;2024-01-11T13:47:09;14.17;;;11.20;;
12631;SDS011;6381;45.748;12.106;2024-01-11T13:49:39;12.63;;;11.33;;
12631;SDS011;6381;45.748;12.106;2024-01-11T13:52:10;15.73;;;11.63;;
12631;SDS011;6381;45.748;12.106;2024-01-11T13:54:38;12.13;;;10.83;;
12631;SDS011;6381;45.748;12.106;2024-01-11T13:57:07;10.53;;;9.40;;
12631;SDS011;6381;45.748;12.106;2024-01-11T13:59:36;13.00;;;10.57;;
12631;SDS011;6381;45.748;12.106;2024-01-11T14:02:06;15.17;;;10.27;;
12631;SDS011;6381;45.748;12.106;2024-01-11T14:04:34;15.43;;;10.63;;
12631;SDS011;6381;45.748;12.106;2024-01-11T14:07:03;13.03;;;10.33;;
12631;SDS011;6381;45.748;12.106;2024-01-11T14:09:32;12.57;;;10.40;;
12631;SDS011;6381;45.748;12.106;2024-01-11T14:12:00;14.17;;;10.50;;
12631;SDS011;6381;45.748;12.106;2024-01-11T14:14:29;11.57;;;9.97;;
12631;SDS011;6381;45.748;12.106;2024-01-11T14:16:58;11.80;;;10.57;;
12631;SDS011;6381;45.748;12.106;2024-01-11T14:19:28;14.40;;;11.27;;
12631;SDS011;6381;45.748;12.106;2024-01-11T14:21:57;12.33;;;10.07;;
12631;SDS011;6381;45.748;12.106;2024-01-11T14:24:25;12.63;;;9.90;;
12631;SDS011;6381;45.748;12.106;2024-01-11T14:27:02;11.80;;;10.17;;
12631;SDS011;6381;45.748;12.106;2024-01-11T14:29:31;12.20;;;10.10;;
12631;SDS011;6381;45.748;12.106;2024-01-11T14:32:00;11.40;;;9.90;;
12631;SDS011;6381;45.748;12.106;2024-01-11T14:34:30;11.77;;;10.37;;
12631;SDS011;6381;45.748;12.106;2024-01-11T14:36:59;12.23;;;10.93;;
12631;SDS011;6381;45.748;12.106;2024-01-11T14:39:29;11.20;;;10.00;;
12631;SDS011;6381;45.748;12.106;2024-01-11T14:41:57;12.90;;;10.43;;
12631;SDS011;6381;45.748;12.106;2024-01-11T14:44:26;15.00;;;11.90;;
12631;SDS011;6381;45.748;12.106;2024-01-11T14:46:54;14.53;;;10.23;;
12631;SDS011;6381;45.748;12.106;2024-01-11T14:49:24;14.23;;;10.67;;
12631;SDS011;6381;45.748;12.106;2024-01-11T14:51:54;13.57;;;10.77;;